sensor_id;sensor_type;location;lat;lon;timestamp;temperature;humidity
9057;DHT22;4563;54.756;9.400;2024-02-23T00:01:45;12.40;89.60
9057;DHT22;4563;54.756;9.400;2024-02-23T00:04:14;12.40;89.60
9057;DHT22;4563;54.756;9.400;2024-02-23T00:06:40;12.30;89.40
9057;DHT22;4563;54.756;9.400;2024-02-23T00:09:07;12.30;89.20
9057;DHT22;4563;54.756;9.400;2024-02-23T00:11:34;12.30;89.20
9057;DHT22;4563;54.756;9.400;2024-02-23T00:14:05;12.20;89.00
9057;DHT22;4563;54.756;9.400;2024-02-23T00:16:37;12.10;88.50
9057;DHT22;4563;54.756;9.400;2024-02-23T00:19:04;12.10;88.90
9057;DHT22;4563;54.756;9.400;2024-02-23T00:21:32;12.00;88.40
9057;DHT22;4563;54.756;9.400;2024-02-23T00:23:59;12.00;88.70
9057;DHT22;4563;54.756;9.400;2024-02-23T00:26:25;12.00;88.40
9057;DHT22;4563;54.756;9.400;2024-02-23T00:28:53;11.90;87.90
9057;DHT22;4563;54.756;9.400;2024-02-23T00:31:20;11.90;87.80
9057;DHT22;4563;54.756;9.400;2024-02-23T00:33:47;11.80;88.00
9057;DHT22;4563;54.756;9.400;2024-02-23T00:36:13;11.80;87.70
9057;DHT22;4563;54.756;9.400;2024-02-23T00:38:42;11.70;87.10
9057;DHT22;4563;54.756;9.400;2024-02-23T00:41:09;11.60;86.40
9057;DHT22;4563;54.756;9.400;2024-02-23T00:43:38;11.60;86.70
9057;DHT22;4563;54.756;9.400;2024-02-23T00:46:05;11.50;86.10
9057;DHT22;4563;54.756;9.400;2024-02-23T00:48:33;11.40;85.60
9057;DHT22;4563;54.756;9.400;2024-02-23T00:51:00;11.40;85.40
9057;DHT22;4563;54.756;9.400;2024-02-23T00:53:28;11.30;85.40
9057;DHT22;4563;54.756;9.400;2024-02-23T00:55:56;11.20;85.10
9057;DHT22;4563;54.756;9.400;2024-02-23T00:58:23;11.20;85.10
9057;DHT22;4563;54.756;9.400;2024-02-23T01:00:49;11.10;85.40
9057;DHT22;4563;54.756;9.400;2024-02-23T01:03:16;11.00;84.40
9057;DHT22;4563;54.756;9.400;2024-02-23T01:05:43;10.90;84.50
9057;DHT22;4563;54.756;9.400;2024-02-23T01:08:10;10.90;84.50
9057;DHT22;4563;54.756;9.400;2024-02-23T01:10:37;10.80;84.20
9057;DHT22;4563;54.756;9.400;2024-02-23T01:13:05;10.80;84.50
9057;DHT22;4563;54.756;9.400;2024-02-23T01:15:31;10.70;84.10
9057;DHT22;4563;54.756;9.400;2024-02-23T01:17:58;10.60;84.30
9057;DHT22;4563;54.756;9.400;2024-02-23T01:20:25;10.60;84.50
9057;DHT22;4563;54.756;9.400;2024-02-23T01:22:52;10.40;84.30
9057;DHT22;4563;54.756;9.400;2024-02-23T01:25:18;10.40;84.20
9057;DHT22;4563;54.756;9.400;2024-02-23T01:27:45;10.30;84.40
9057;DHT22;4563;54.756;9.400;2024-02-23T01:30:13;10.30;84.30
9057;DHT22;4563;54.756;9.400;2024-02-23T01:32:40;10.20;84.40
9057;DHT22;4563;54.756;9.400;2024-02-23T01:35:08;10.10;84.20
9057;DHT22;4563;54.756;9.400;2024-02-23T01:37:35;10.00;84.50
9057;DHT22;4563;54.756;9.400;2024-02-23T01:40:02;10.00;84.70
9057;DHT22;4563;54.756;9.400;2024-02-23T01:42:29;9.90;85.70
9057;DHT22;4563;54.756;9.400;2024-02-23T01:44:56;9.80;85.70
9057;DHT22;4563;54.756;9.400;2024-02-23T01:47:24;9.80;85.80
9057;DHT22;4563;54.756;9.400;2024-02-23T01:49:53;9.70;85.90
9057;DHT22;4563;54.756;9.400;2024-02-23T01:52:21;9.70;86.00
9057;DHT22;4563;54.756;9.400;2024-02-23T01:54:48;9.60;86.10
9057;DHT22;4563;54.756;9.400;2024-02-23T01:57:15;9.60;85.90
9057;DHT22;4563;54.756;9.400;2024-02-23T01:59:42;9.50;86.30
9057;DHT22;4563;54.756;9.400;2024-02-23T02:02:09;9.50;85.60
9057;DHT22;4563;54.756;9.400;2024-02-23T02:04:37;9.50;85.60
9057;DHT22;4563;54.756;9.400;2024-02-23T02:07:04;9.40;85.50
9057;DHT22;4563;54.756;9.400;2024-02-23T02:09:31;9.40;85.70
9057;DHT22;4563;54.756;9.400;2024-02-23T02:11:58;9.40;85.50
9057;DHT22;4563;54.756;9.400;2024-02-23T02:14:25;9.30;85.70
9057;DHT22;4563;54.756;9.400;2024-02-23T02:16:55;9.30;85.70
9057;DHT22;4563;54.756;9.400;2024-02-23T02:19:22;9.20;85.60
9057;DHT22;4563;54.756;9.400;2024-02-23T02:21:50;9.20;85.50
9057;DHT22;4563;54.756;9.400;2024-02-23T02:24:17;9.20;85.60
9057;DHT22;4563;54.756;9.400;2024-02-23T02:26:44;9.20;85.60
9057;DHT22;4563;54.756;9.400;2024-02-23T02:29:13;9.10;85.40
9057;DHT22;4563;54.756;9.400;2024-02-23T02:31:40;9.10;85.60
9057;DHT22;4563;54.756;9.400;2024-02-23T02:34:06;9.10;85.60
9057;DHT22;4563;54.756;9.400;2024-02-23T02:36:34;9.00;85.40
9057;DHT22;4563;54.756;9.400;2024-02-23T02:39:02;9.00;85.10
9057;DHT22;4563;54.756;9.400;2024-02-23T02:41:30;9.00;85.40
9057;DHT22;4563;54.756;9.400;2024-02-23T02:43:56;9.00;85.50
9057;DHT22;4563;54.756;9.400;2024-02-23T02:46:23;8.90;85.30
9057;DHT22;4563;54.756;9.400;2024-02-23T02:48:50;8.90;85.30
9057;DHT22;4563;54.756;9.400;2024-02-23T02:51:17;8.80;85.40
9057;DHT22;4563;54.756;9.400;2024-02-23T02:53:43;8.80;85.50
9057;DHT22;4563;54.756;9.400;2024-02-23T02:56:12;8.80;85.30
9057;DHT22;4563;54.756;9.400;2024-02-23T02:58:38;8.80;85.20
9057;DHT22;4563;54.756;9.400;2024-02-23T03:01:05;8.80;85.10
9057;DHT22;4563;54.756;9.400;2024-02-23T03:03:32;8.70;84.90
9057;DHT22;4563;54.756;9.400;2024-02-23T03:05:59;8.70;84.80
9057;DHT22;4563;54.756;9.400;2024-02-23T03:08:25;8.70;84.70
9057;DHT22;4563;54.756;9.400;2024-02-23T03:10:52;8.70;84.70
9057;DHT22;4563;54.756;9.400;2024-02-23T03:13:20;8.70;84.80
9057;DHT22;4563;54.756;9.400;2024-02-23T03:15:47;8.70;84.80
9057;DHT22;4563;54.756;9.400;2024-02-23T03:18:14;8.60;84.70
9057;DHT22;4563;54.756;9.400;2024-02-23T03:20:41;8.70;84.60
9057;DHT22;4563;54.756;9.400;2024-02-23T03:23:08;8.60;84.90
9057;DHT22;4563;54.756;9.400;2024-02-23T03:25:35;8.60;84.70
9057;DHT22;4563;54.756;9.400;2024-02-23T03:28:01;8.60;84.60
9057;DHT22;4563;54.756;9.400;2024-02-23T03:30:30;8.60;84.40
9057;DHT22;4563;54.756;9.400;2024-02-23T03:32:56;8.60;84.40
9057;DHT22;4563;54.756;9.400;2024-02-23T03:35:23;8.70;84.50
9057;DHT22;4563;54.756;9.400;2024-02-23T03:37:50;8.60;85.10
9057;DHT22;4563;54.756;9.400;2024-02-23T03:40:17;8.60;84.40
9057;DHT22;4563;54.756;9.400;2024-02-23T03:42:44;8.70;84.60
9057;DHT22;4563;54.756;9.400;2024-02-23T03:45:11;8.60;84.50
9057;DHT22;4563;54.756;9.400;2024-02-23T03:47:39;8.60;84.60
9057;DHT22;4563;54.756;9.400;2024-02-23T03:50:07;8.60;84.50
9057;DHT22;4563;54.756;9.400;2024-02-23T03:52:34;8.70;84.70
9057;DHT22;4563;54.756;9.400;2024-02-23T03:55:01;8.60;84.30
9057;DHT22;4563;54.756;9.400;2024-02-23T03:57:29;8.70;84.50
9057;DHT22;4563;54.756;9.400;2024-02-23T03:59:56;8.60;84.30
9057;DHT22;4563;54.756;9.400;2024-02-23T04:02:23;8.60;84.20
9057;DHT22;4563;54.756;9.400;2024-02-23T04:04:51;8.60;84.10
9057;DHT22;4563;54.756;9.400;2024-02-23T04:07:19;8.60;84.00
9057;DHT22;4563;54.756;9.400;2024-02-23T04:09:46;8.60;84.00
9057;DHT22;4563;54.756;9.400;2024-02-23T04:12:17;8.60;83.90
9057;DHT22;4563;54.756;9.400;2024-02-23T04:14:44;8.60;84.00
9057;DHT22;4563;54.756;9.400;2024-02-23T04:17:11;8.60;83.90
9057;DHT22;4563;54.756;9.400;2024-02-23T04:19:38;8.60;83.90
9057;DHT22;4563;54.756;9.400;2024-02-23T04:22:06;8.50;83.80
9057;DHT22;4563;54.756;9.400;2024-02-23T04:24:34;8.50;83.70
9057;DHT22;4563;54.756;9.400;2024-02-23T04:27:01;8.50;83.80
9057;DHT22;4563;54.756;9.400;2024-02-23T04:29:27;8.50;83.80
9057;DHT22;4563;54.756;9.400;2024-02-23T04:31:54;8.50;83.80
9057;DHT22;4563;54.756;9.400;2024-02-23T04:34:21;8.50;83.80
9057;DHT22;4563;54.756;9.400;2024-02-23T04:36:48;8.50;83.60
9057;DHT22;4563;54.756;9.400;2024-02-23T04:39:16;8.40;83.70
9057;DHT22;4563;54.756;9.400;2024-02-23T04:41:43;8.50;83.90
9057;DHT22;4563;54.756;9.400;2024-02-23T04:44:09;8.40;84.00
9057;DHT22;4563;54.756;9.400;2024-02-23T04:46:36;8.40;83.80
9057;DHT22;4563;54.756;9.400;2024-02-23T04:49:03;8.40;83.80
9057;DHT22;4563;54.756;9.400;2024-02-23T04:51:30;8.40;83.70
9057;DHT22;4563;54.756;9.400;2024-02-23T04:53:56;8.40;83.70
9057;DHT22;4563;54.756;9.400;2024-02-23T04:56:25;8.40;83.70
9057;DHT22;4563;54.756;9.400;2024-02-23T04:58:51;8.40;83.70
9057;DHT22;4563;54.756;9.400;2024-02-23T05:01:18;8.40;83.70
9057;DHT22;4563;54.756;9.400;2024-02-23T05:03:45;8.40;83.80
9057;DHT22;4563;54.756;9.400;2024-02-23T05:06:12;8.40;83.80
9057;DHT22;4563;54.756;9.400;2024-02-23T05:08:39;8.40;83.70
9057;DHT22;4563;54.756;9.400;2024-02-23T05:11:06;8.40;83.60
9057;DHT22;4563;54.756;9.400;2024-02-23T05:13:34;8.40;83.40
9057;DHT22;4563;54.756;9.400;2024-02-23T05:16:02;8.40;83.40
9057;DHT22;4563;54.756;9.400;2024-02-23T05:18:29;8.40;83.30
9057;DHT22;4563;54.756;9.400;2024-02-23T05:20:56;8.30;83.50
9057;DHT22;4563;54.756;9.400;2024-02-23T05:23:22;8.30;83.20
9057;DHT22;4563;54.756;9.400;2024-02-23T05:25:49;8.30;84.20
9057;DHT22;4563;54.756;9.400;2024-02-23T05:28:16;8.40;83.40
9057;DHT22;4563;54.756;9.400;2024-02-23T05:30:44;8.40;83.50
9057;DHT22;4563;54.756;9.400;2024-02-23T05:33:11;8.40;83.30
9057;DHT22;4563;54.756;9.400;2024-02-23T05:35:38;8.40;83.30
9057;DHT22;4563;54.756;9.400;2024-02-23T05:38:05;8.40;83.20
9057;DHT22;4563;54.756;9.400;2024-02-23T05:40:32;8.40;83.20
9057;DHT22;4563;54.756;9.400;2024-02-23T05:42:59;8.40;83.10
9057;DHT22;4563;54.756;9.400;2024-02-23T05:45:25;8.40;82.90
9057;DHT22;4563;54.756;9.400;2024-02-23T05:47:53;8.40;82.90
9057;DHT22;4563;54.756;9.400;2024-02-23T05:50:20;8.40;82.80
9057;DHT22;4563;54.756;9.400;2024-02-23T05:52:47;8.40;82.70
9057;DHT22;4563;54.756;9.400;2024-02-23T05:55:14;8.40;82.70
9057;DHT22;4563;54.756;9.400;2024-02-23T05:57:41;8.40;82.60
9057;DHT22;4563;54.756;9.400;2024-02-23T06:00:08;8.40;82.60
9057;DHT22;4563;54.756;9.400;2024-02-23T06:02:35;8.40;82.70
9057;DHT22;4563;54.756;9.400;2024-02-23T06:05:05;8.40;82.70
9057;DHT22;4563;54.756;9.400;2024-02-23T06:07:33;8.40;82.60
9057;DHT22;4563;54.756;9.400;2024-02-23T06:10:00;8.40;82.70
9057;DHT22;4563;54.756;9.400;2024-02-23T06:12:27;8.40;82.70
9057;DHT22;4563;54.756;9.400;2024-02-23T06:14:55;8.40;82.70
9057;DHT22;4563;54.756;9.400;2024-02-23T06:17:22;8.40;82.70
9057;DHT22;4563;54.756;9.400;2024-02-23T06:19:49;8.40;82.80
9057;DHT22;4563;54.756;9.400;2024-02-23T06:22:17;8.40;82.80
9057;DHT22;4563;54.756;9.400;2024-02-23T06:24:46;8.40;82.80
9057;DHT22;4563;54.756;9.400;2024-02-23T06:27:13;8.40;82.80
9057;DHT22;4563;54.756;9.400;2024-02-23T06:29:40;8.40;82.90
9057;DHT22;4563;54.756;9.400;2024-02-23T06:32:06;8.30;82.80
9057;DHT22;4563;54.756;9.400;2024-02-23T06:34:33;8.40;82.90
9057;DHT22;4563;54.756;9.400;2024-02-23T06:37:00;8.30;82.80
9057;DHT22;4563;54.756;9.400;2024-02-23T06:39:28;8.30;82.80
9057;DHT22;4563;54.756;9.400;2024-02-23T06:41:55;8.40;83.60
9057;DHT22;4563;54.756;9.400;2024-02-23T06:44:23;8.30;82.70
9057;DHT22;4563;54.756;9.400;2024-02-23T06:46:49;8.30;82.80
9057;DHT22;4563;54.756;9.400;2024-02-23T06:49:16;8.30;82.80
9057;DHT22;4563;54.756;9.400;2024-02-23T06:51:43;8.30;82.80
9057;DHT22;4563;54.756;9.400;2024-02-23T06:54:10;8.30;82.60
9057;DHT22;4563;54.756;9.400;2024-02-23T06:56:38;8.30;82.60
9057;DHT22;4563;54.756;9.400;2024-02-23T06:59:05;8.30;82.50
9057;DHT22;4563;54.756;9.400;2024-02-23T07:01:32;8.30;82.50
9057;DHT22;4563;54.756;9.400;2024-02-23T07:04:00;8.30;82.60
9057;DHT22;4563;54.756;9.400;2024-02-23T07:06:27;8.30;82.40
9057;DHT22;4563;54.756;9.400;2024-02-23T07:08:56;8.30;82.40
9057;DHT22;4563;54.756;9.400;2024-02-23T07:11:23;8.20;82.30
9057;DHT22;4563;54.756;9.400;2024-02-23T07:13:51;8.20;82.30
9057;DHT22;4563;54.756;9.400;2024-02-23T07:16:18;8.20;82.20
9057;DHT22;4563;54.756;9.400;2024-02-23T07:18:46;8.20;82.20
9057;DHT22;4563;54.756;9.400;2024-02-23T07:21:13;8.20;82.20
9057;DHT22;4563;54.756;9.400;2024-02-23T07:23:40;8.30;82.20
9057;DHT22;4563;54.756;9.400;2024-02-23T07:26:07;8.20;82.10
9057;DHT22;4563;54.756;9.400;2024-02-23T07:28:34;8.20;82.10
9057;DHT22;4563;54.756;9.400;2024-02-23T07:31:02;8.20;82.20
9057;DHT22;4563;54.756;9.400;2024-02-23T07:33:29;8.20;82.10
9057;DHT22;4563;54.756;9.400;2024-02-23T07:35:56;8.30;82.10
9057;DHT22;4563;54.756;9.400;2024-02-23T07:38:23;8.20;82.00
9057;DHT22;4563;54.756;9.400;2024-02-23T07:40:50;8.20;81.90
9057;DHT22;4563;54.756;9.400;2024-02-23T07:43:16;8.20;81.80
9057;DHT22;4563;54.756;9.400;2024-02-23T07:45:43;8.20;81.90
9057;DHT22;4563;54.756;9.400;2024-02-23T07:48:11;8.20;81.90
9057;DHT22;4563;54.756;9.400;2024-02-23T07:50:38;8.20;81.90
9057;DHT22;4563;54.756;9.400;2024-02-23T07:53:05;8.20;81.80
9057;DHT22;4563;54.756;9.400;2024-02-23T07:55:32;8.20;81.90
9057;DHT22;4563;54.756;9.400;2024-02-23T07:57:58;8.20;82.00
9057;DHT22;4563;54.756;9.400;2024-02-23T08:00:26;8.20;82.00
9057;DHT22;4563;54.756;9.400;2024-02-23T08:02:53;8.20;82.10
9057;DHT22;4563;54.756;9.400;2024-02-23T08:05:23;8.20;82.30
9057;DHT22;4563;54.756;9.400;2024-02-23T08:07:50;8.20;82.50
9057;DHT22;4563;54.756;9.400;2024-02-23T08:10:17;8.20;82.70
9057;DHT22;4563;54.756;9.400;2024-02-23T08:12:44;8.20;82.40
9057;DHT22;4563;54.756;9.400;2024-02-23T08:15:10;8.10;82.20
9057;DHT22;4563;54.756;9.400;2024-02-23T08:17:37;8.10;82.20
9057;DHT22;4563;54.756;9.400;2024-02-23T08:20:05;8.00;82.00
9057;DHT22;4563;54.756;9.400;2024-02-23T08:22:34;8.00;81.90
9057;DHT22;4563;54.756;9.400;2024-02-23T08:25:00;8.00;81.80
9057;DHT22;4563;54.756;9.400;2024-02-23T08:27:27;7.90;81.70
9057;DHT22;4563;54.756;9.400;2024-02-23T08:29:54;7.90;81.70
9057;DHT22;4563;54.756;9.400;2024-02-23T08:32:21;7.80;81.60
9057;DHT22;4563;54.756;9.400;2024-02-23T08:34:47;7.80;81.80
9057;DHT22;4563;54.756;9.400;2024-02-23T08:37:14;7.80;81.80
9057;DHT22;4563;54.756;9.400;2024-02-23T08:39:42;7.80;82.00
9057;DHT22;4563;54.756;9.400;2024-02-23T08:42:10;7.80;82.10
9057;DHT22;4563;54.756;9.400;2024-02-23T08:44:36;7.70;82.00
9057;DHT22;4563;54.756;9.400;2024-02-23T08:47:05;7.70;82.20
9057;DHT22;4563;54.756;9.400;2024-02-23T08:49:31;7.70;82.30
9057;DHT22;4563;54.756;9.400;2024-02-23T08:51:59;7.70;82.50
9057;DHT22;4563;54.756;9.400;2024-02-23T08:54:26;7.70;82.50
9057;DHT22;4563;54.756;9.400;2024-02-23T08:56:54;7.70;82.50
9057;DHT22;4563;54.756;9.400;2024-02-23T08:59:21;7.70;82.50
9057;DHT22;4563;54.756;9.400;2024-02-23T09:01:47;7.70;83.40
9057;DHT22;4563;54.756;9.400;2024-02-23T09:04:14;7.70;82.70
9057;DHT22;4563;54.756;9.400;2024-02-23T09:06:41;7.70;82.90
9057;DHT22;4563;54.756;9.400;2024-02-23T09:09:08;7.70;83.00
9057;DHT22;4563;54.756;9.400;2024-02-23T09:11:35;7.70;83.10
9057;DHT22;4563;54.756;9.400;2024-02-23T09:14:04;7.70;83.10
9057;DHT22;4563;54.756;9.400;2024-02-23T09:16:31;7.70;83.20
9057;DHT22;4563;54.756;9.400;2024-02-23T09:18:58;7.80;83.40
9057;DHT22;4563;54.756;9.400;2024-02-23T09:21:24;7.80;83.40
9057;DHT22;4563;54.756;9.400;2024-02-23T09:23:51;7.80;83.50
9057;DHT22;4563;54.756;9.400;2024-02-23T09:26:20;7.80;83.60
9057;DHT22;4563;54.756;9.400;2024-02-23T09:28:47;7.80;83.60
9057;DHT22;4563;54.756;9.400;2024-02-23T09:31:15;7.90;84.10
9057;DHT22;4563;54.756;9.400;2024-02-23T09:33:42;7.90;83.80
9057;DHT22;4563;54.756;9.400;2024-02-23T09:36:11;7.90;83.90
9057;DHT22;4563;54.756;9.400;2024-02-23T09:38:38;8.00;84.00
9057;DHT22;4563;54.756;9.400;2024-02-23T09:41:04;8.00;84.00
9057;DHT22;4563;54.756;9.400;2024-02-23T09:43:34;8.00;84.10
9057;DHT22;4563;54.756;9.400;2024-02-23T09:46:02;8.00;84.00
9057;DHT22;4563;54.756;9.400;2024-02-23T09:48:31;8.10;84.20
9057;DHT22;4563;54.756;9.400;2024-02-23T09:51:01;8.10;84.20
9057;DHT22;4563;54.756;9.400;2024-02-23T09:53:28;8.10;84.10
9057;DHT22;4563;54.756;9.400;2024-02-23T09:55:55;8.10;84.20
9057;DHT22;4563;54.756;9.400;2024-02-23T09:58:23;8.20;84.20
9057;DHT22;4563;54.756;9.400;2024-02-23T10:00:52;8.20;84.20
9057;DHT22;4563;54.756;9.400;2024-02-23T10:03:20;8.20;85.10
9057;DHT22;4563;54.756;9.400;2024-02-23T10:05:52;8.20;84.20
9057;DHT22;4563;54.756;9.400;2024-02-23T10:08:19;8.30;84.30
9057;DHT22;4563;54.756;9.400;2024-02-23T10:10:46;8.30;84.30
9057;DHT22;4563;54.756;9.400;2024-02-23T10:13:18;8.40;84.40
9057;DHT22;4563;54.756;9.400;2024-02-23T10:15:46;8.40;84.40
9057;DHT22;4563;54.756;9.400;2024-02-23T10:18:13;8.40;84.40
9057;DHT22;4563;54.756;9.400;2024-02-23T10:20:40;8.50;84.40
9057;DHT22;4563;54.756;9.400;2024-02-23T10:23:09;8.50;84.40
9057;DHT22;4563;54.756;9.400;2024-02-23T10:25:36;8.50;84.40
9057;DHT22;4563;54.756;9.400;2024-02-23T10:28:03;8.50;84.20
9057;DHT22;4563;54.756;9.400;2024-02-23T10:30:30;8.60;84.20
9057;DHT22;4563;54.756;9.400;2024-02-23T10:32:57;8.60;84.30
9057;DHT22;4563;54.756;9.400;2024-02-23T10:35:25;8.70;84.20
9057;DHT22;4563;54.756;9.400;2024-02-23T10:37:53;8.70;84.20
9057;DHT22;4563;54.756;9.400;2024-02-23T10:40:22;8.70;84.00
9057;DHT22;4563;54.756;9.400;2024-02-23T10:42:56;8.70;84.00
9057;DHT22;4563;54.756;9.400;2024-02-23T10:45:23;8.80;84.10
9057;DHT22;4563;54.756;9.400;2024-02-23T10:47:50;8.80;84.10
9057;DHT22;4563;54.756;9.400;2024-02-23T10:50:18;8.80;83.90
9057;DHT22;4563;54.756;9.400;2024-02-23T10:52:45;8.90;83.70
9057;DHT22;4563;54.756;9.400;2024-02-23T10:55:14;8.90;83.60
9057;DHT22;4563;54.756;9.400;2024-02-23T10:57:43;8.90;83.60
9057;DHT22;4563;54.756;9.400;2024-02-23T11:00:11;9.00;83.60
9057;DHT22;4563;54.756;9.400;2024-02-23T11:02:41;9.00;83.50
9057;DHT22;4563;54.756;9.400;2024-02-23T11:05:08;9.00;83.50
9057;DHT22;4563;54.756;9.400;2024-02-23T11:07:38;9.00;83.50
9057;DHT22;4563;54.756;9.400;2024-02-23T11:10:06;9.00;83.40
9057;DHT22;4563;54.756;9.400;2024-02-23T11:12:35;9.00;83.20
9057;DHT22;4563;54.756;9.400;2024-02-23T11:15:04;9.00;83.20
9057;DHT22;4563;54.756;9.400;2024-02-23T11:17:31;9.00;83.00
9057;DHT22;4563;54.756;9.400;2024-02-23T11:20:01;9.10;83.00
9057;DHT22;4563;54.756;9.400;2024-02-23T11:22:31;9.10;83.00
9057;DHT22;4563;54.756;9.400;2024-02-23T11:25:00;9.10;82.90
9057;DHT22;4563;54.756;9.400;2024-02-23T11:27:31;9.10;82.90
9057;DHT22;4563;54.756;9.400;2024-02-23T11:30:04;9.10;83.10
9057;DHT22;4563;54.756;9.400;2024-02-23T11:32:38;9.20;83.00
9057;DHT22;4563;54.756;9.400;2024-02-23T11:35:07;9.20;82.90
9057;DHT22;4563;54.756;9.400;2024-02-23T11:37:45;9.20;82.50
9057;DHT22;4563;54.756;9.400;2024-02-23T11:40:13;9.20;82.50
9057;DHT22;4563;54.756;9.400;2024-02-23T11:42:41;9.20;82.30
9057;DHT22;4563;54.756;9.400;2024-02-23T11:45:10;9.20;82.30
9057;DHT22;4563;54.756;9.400;2024-02-23T11:47:37;9.20;82.20
9057;DHT22;4563;54.756;9.400;2024-02-23T11:50:04;9.30;82.30
9057;DHT22;4563;54.756;9.400;2024-02-23T11:52:32;9.30;82.30
9057;DHT22;4563;54.756;9.400;2024-02-23T11:54:59;9.30;82.20
9057;DHT22;4563;54.756;9.400;2024-02-23T11:57:26;9.30;82.10
9057;DHT22;4563;54.756;9.400;2024-02-23T11:59:54;9.30;82.50
9057;DHT22;4563;54.756;9.400;2024-02-23T12:02:23;9.40;82.20
9057;DHT22;4563;54.756;9.400;2024-02-23T12:04:50;9.40;82.60
9057;DHT22;4563;54.756;9.400;2024-02-23T12:07:18;9.40;82.50
9057;DHT22;4563;54.756;9.400;2024-02-23T12:09:46;9.40;82.50
9057;DHT22;4563;54.756;9.400;2024-02-23T12:12:13;9.40;83.10
9057;DHT22;4563;54.756;9.400;2024-02-23T12:14:40;9.40;84.20
9057;DHT22;4563;54.756;9.400;2024-02-23T12:17:08;9.30;84.10
9057;DHT22;4563;54.756;9.400;2024-02-23T12:19:38;9.40;83.20
9057;DHT22;4563;54.756;9.400;2024-02-23T12:22:06;9.40;83.00
9057;DHT22;4563;54.756;9.400;2024-02-23T12:24:34;9.40;82.60
9057;DHT22;4563;54.756;9.400;2024-02-23T12:27:01;9.40;82.20
9057;DHT22;4563;54.756;9.400;2024-02-23T12:29:28;9.40;83.20
9057;DHT22;4563;54.756;9.400;2024-02-23T12:32:03;9.40;82.40
9057;DHT22;4563;54.756;9.400;2024-02-23T12:34:30;9.40;82.30
9057;DHT22;4563;54.756;9.400;2024-02-23T12:36:58;9.40;82.40
9057;DHT22;4563;54.756;9.400;2024-02-23T12:39:24;9.40;82.50
9057;DHT22;4563;54.756;9.400;2024-02-23T12:41:52;9.40;82.50
9057;DHT22;4563;54.756;9.400;2024-02-23T12:44:19;9.40;83.00
9057;DHT22;4563;54.756;9.400;2024-02-23T12:46:46;9.40;82.70
9057;DHT22;4563;54.756;9.400;2024-02-23T12:49:13;9.40;84.30
9057;DHT22;4563;54.756;9.400;2024-02-23T12:51:41;9.30;83.80
9057;DHT22;4563;54.756;9.400;2024-02-23T12:54:09;9.40;83.60
9057;DHT22;4563;54.756;9.400;2024-02-23T12:56:36;9.30;83.80
9057;DHT22;4563;54.756;9.400;2024-02-23T12:59:03;9.40;83.40
9057;DHT22;4563;54.756;9.400;2024-02-23T13:01:30;9.40;83.60
9057;DHT22;4563;54.756;9.400;2024-02-23T13:03:59;9.40;83.30
9057;DHT22;4563;54.756;9.400;2024-02-23T13:06:29;9.30;83.70
9057;DHT22;4563;54.756;9.400;2024-02-23T13:08:56;9.30;84.20
9057;DHT22;4563;54.756;9.400;2024-02-23T13:11:24;9.30;83.80
9057;DHT22;4563;54.756;9.400;2024-02-23T13:13:51;9.30;84.00
9057;DHT22;4563;54.756;9.400;2024-02-23T13:16:18;9.40;83.90
9057;DHT22;4563;54.756;9.400;2024-02-23T13:18:45;9.40;83.70
9057;DHT22;4563;54.756;9.400;2024-02-23T13:21:12;9.40;83.30
9057;DHT22;4563;54.756;9.400;2024-02-23T13:23:39;9.40;83.70
9057;DHT22;4563;54.756;9.400;2024-02-23T13:26:07;9.30;83.80
9057;DHT22;4563;54.756;9.400;2024-02-23T13:28:37;9.40;83.60
9057;DHT22;4563;54.756;9.400;2024-02-23T13:31:04;9.40;83.40
9057;DHT22;4563;54.756;9.400;2024-02-23T13:33:31;9.30;84.00
9057;DHT22;4563;54.756;9.400;2024-02-23T13:35:57;9.30;84.50
9057;DHT22;4563;54.756;9.400;2024-02-23T13:38:24;9.30;84.50
9057;DHT22;4563;54.756;9.400;2024-02-23T13:40:51;9.30;84.20
9057;DHT22;4563;54.756;9.400;2024-02-23T13:43:18;9.30;84.80
9057;DHT22;4563;54.756;9.400;2024-02-23T13:45:50;9.30;84.40
9057;DHT22;4563;54.756;9.400;2024-02-23T13:48:18;9.30;84.80
9057;DHT22;4563;54.756;9.400;2024-02-23T13:50:45;9.40;84.70
9057;DHT22;4563;54.756;9.400;2024-02-23T13:53:13;9.40;84.70
9057;DHT22;4563;54.756;9.400;2024-02-23T13:55:40;9.40;84.70
9057;DHT22;4563;54.756;9.400;2024-02-23T13:58:08;9.50;84.30
9057;DHT22;4563;54.756;9.400;2024-02-23T14:00:34;9.50;84.80
9057;DHT22;4563;54.756;9.400;2024-02-23T14:03:03;9.50;84.20
9057;DHT22;4563;54.756;9.400;2024-02-23T14:05:30;9.50;84.50
9057;DHT22;4563;54.756;9.400;2024-02-23T14:07:57;9.50;84.80
9057;DHT22;4563;54.756;9.400;2024-02-23T14:10:24;9.60;84.90
9057;DHT22;4563;54.756;9.400;2024-02-23T14:12:51;9.60;84.90
9057;DHT22;4563;54.756;9.400;2024-02-23T14:15:18;9.60;84.60
9057;DHT22;4563;54.756;9.400;2024-02-23T14:17:44;9.60;84.50
9057;DHT22;4563;54.756;9.400;2024-02-23T14:20:13;9.60;84.40
9057;DHT22;4563;54.756;9.400;2024-02-23T14:22:39;9.60;84.30
9057;DHT22;4563;54.756;9.400;2024-02-23T14:25:07;9.60;84.40
9057;DHT22;4563;54.756;9.400;2024-02-23T14:27:35;9.60;84.50
9057;DHT22;4563;54.756;9.400;2024-02-23T14:30:02;9.60;85.00
9057;DHT22;4563;54.756;9.400;2024-02-23T14:32:29;9.60;84.10
9057;DHT22;4563;54.756;9.400;2024-02-23T14:34:56;9.60;84.10
9057;DHT22;4563;54.756;9.400;2024-02-23T14:37:24;9.60;84.10
9057;DHT22;4563;54.756;9.400;2024-02-23T14:39:51;9.60;84.40
9057;DHT22;4563;54.756;9.400;2024-02-23T14:42:18;9.60;84.20
9057;DHT22;4563;54.756;9.400;2024-02-23T14:44:45;9.60;84.30
9057;DHT22;4563;54.756;9.400;2024-02-23T14:47:12;9.60;84.20
9057;DHT22;4563;54.756;9.400;2024-02-23T14:49:39;9.60;84.20
9057;DHT22;4563;54.756;9.400;2024-02-23T14:52:06;9.60;84.10
9057;DHT22;4563;54.756;9.400;2024-02-23T14:54:34;9.60;84.10
9057;DHT22;4563;54.756;9.400;2024-02-23T14:57:01;9.60;84.30
9057;DHT22;4563;54.756;9.400;2024-02-23T14:59:29;9.60;84.40
9057;DHT22;4563;54.756;9.400;2024-02-23T15:01:56;9.50;84.50
9057;DHT22;4563;54.756;9.400;2024-02-23T15:04:23;9.50;84.60
9057;DHT22;4563;54.756;9.400;2024-02-23T15:06:49;9.50;84.40
9057;DHT22;4563;54.756;9.400;2024-02-23T15:09:16;9.50;84.70
9057;DHT22;4563;54.756;9.400;2024-02-23T15:11:45;9.50;84.70
9057;DHT22;4563;54.756;9.400;2024-02-23T15:14:12;9.50;84.50
9057;DHT22;4563;54.756;9.400;2024-02-23T15:16:40;9.50;84.40
9057;DHT22;4563;54.756;9.400;2024-02-23T15:19:07;9.50;84.30
9057;DHT22;4563;54.756;9.400;2024-02-23T15:21:35;9.50;84.30
9057;DHT22;4563;54.756;9.400;2024-02-23T15:24:06;9.40;84.40
9057;DHT22;4563;54.756;9.400;2024-02-23T15:26:32;9.40;84.30
9057;DHT22;4563;54.756;9.400;2024-02-23T15:29:01;9.50;84.40
9057;DHT22;4563;54.756;9.400;2024-02-23T15:31:29;9.50;84.40
9057;DHT22;4563;54.756;9.400;2024-02-23T15:33:56;9.40;84.50
9057;DHT22;4563;54.756;9.400;2024-02-23T15:36:24;9.40;84.40
9057;DHT22;4563;54.756;9.400;2024-02-23T15:38:50;9.50;84.40
9057;DHT22;4563;54.756;9.400;2024-02-23T15:41:18;9.40;84.30
9057;DHT22;4563;54.756;9.400;2024-02-23T15:43:45;9.50;84.20
9057;DHT22;4563;54.756;9.400;2024-02-23T15:46:13;9.50;84.40
9057;DHT22;4563;54.756;9.400;2024-02-23T15:48:40;9.50;84.30
9057;DHT22;4563;54.756;9.400;2024-02-23T15:51:07;9.50;84.20
9057;DHT22;4563;54.756;9.400;2024-02-23T15:53:34;9.40;84.20
9057;DHT22;4563;54.756;9.400;2024-02-23T15:56:01;9.40;84.20
9057;DHT22;4563;54.756;9.400;2024-02-23T15:58:28;9.40;84.30
9057;DHT22;4563;54.756;9.400;2024-02-23T16:00:55;9.40;84.30
9057;DHT22;4563;54.756;9.400;2024-02-23T16:03:23;9.40;84.00
9057;DHT22;4563;54.756;9.400;2024-02-23T16:05:50;9.40;84.30
9057;DHT22;4563;54.756;9.400;2024-02-23T16:08:17;9.40;84.30
9057;DHT22;4563;54.756;9.400;2024-02-23T16:10:43;9.40;85.10
9057;DHT22;4563;54.756;9.400;2024-02-23T16:13:10;9.30;84.30
9057;DHT22;4563;54.756;9.400;2024-02-23T16:15:37;9.30;84.40
9057;DHT22;4563;54.756;9.400;2024-02-23T16:18:04;9.30;84.50